createdAt,value
2023-04-29T00:01:59.291Z,21.70
2023-04-29T00:05:31.167Z,23.40
2023-04-29T00:08:58.817Z,24.80
2023-04-29T00:12:25.841Z,20.20
2023-04-29T00:15:53.001Z,24.60
2023-04-29T00:19:21.760Z,18.50
2023-04-29T00:22:49.752Z,21.20
2023-04-29T00:26:17.743Z,18.70
2023-04-29T00:29:44.591Z,19.20
2023-04-29T00:33:11.312Z,20.00
2023-04-29T00:36:39.221Z,19.00
2023-04-29T00:40:06.985Z,18.50
2023-04-29T00:43:34.138Z,23.70
2023-04-29T00:47:00.947Z,19.50
2023-04-29T00:50:28.039Z,19.10
2023-04-29T00:53:56.317Z,21.30
2023-04-29T00:57:24.180Z,21.90
2023-04-29T01:00:51.627Z,19.70
2023-04-29T01:04:19.286Z,19.00
2023-04-29T01:07:58.696Z,19.80
2023-04-29T01:11:31.156Z,18.00
2023-04-29T01:15:11.586Z,24.70
2023-04-29T01:18:44.239Z,20.40
2023-04-29T01:22:12.880Z,20.70
2023-04-29T01:25:41.097Z,19.80
2023-04-29T01:29:36.970Z,21.40
2023-04-29T01:33:12.821Z,16.60
2023-04-29T01:36:54.655Z,25.70
2023-04-29T01:40:27.726Z,21.30
2023-04-29T01:44:05.560Z,17.40
2023-04-29T01:47:34.257Z,18.80
2023-04-29T01:51:01.657Z,20.30
2023-04-29T01:54:29.118Z,20.20
2023-04-29T01:57:57.347Z,18.40
2023-04-29T02:01:47.017Z,19.40
2023-04-29T02:05:13.895Z,19.70
2023-04-29T02:08:42.677Z,24.00
2023-04-29T02:12:09.972Z,21.40
2023-04-29T02:15:36.657Z,21.30
2023-04-29T02:19:04.000Z,22.30
2023-04-29T02:22:30.950Z,22.00
2023-04-29T02:25:57.945Z,28.10
2023-04-29T02:29:26.744Z,27.40
2023-04-29T02:32:54.925Z,23.10
2023-04-29T02:36:21.674Z,21.70
2023-04-29T02:39:53.083Z,21.20
2023-04-29T02:43:20.580Z,20.10
2023-04-29T02:46:47.656Z,27.60
2023-04-29T02:50:15.319Z,19.70
2023-04-29T02:53:42.086Z,22.60
2023-04-29T02:57:09.064Z,24.10
2023-04-29T03:00:35.991Z,20.50
2023-04-29T03:04:03.284Z,21.00
2023-04-29T03:07:30.873Z,21.80
2023-04-29T03:10:57.517Z,20.60
2023-04-29T03:14:24.575Z,22.60
2023-04-29T03:17:53.974Z,22.40
2023-04-29T03:21:20.727Z,22.60
2023-04-29T03:24:47.714Z,23.70
2023-04-29T03:28:15.250Z,23.40
2023-04-29T03:31:42.401Z,20.80
2023-04-29T03:35:14.132Z,24.80
2023-04-29T03:39:14.313Z,21.60
2023-04-29T03:42:42.733Z,27.30
2023-04-29T03:46:09.969Z,23.50
2023-04-29T03:49:38.215Z,29.50
2023-04-29T03:53:05.356Z,28.80
2023-04-29T03:56:32.231Z,24.20
2023-04-29T03:59:58.823Z,23.60
2023-04-29T04:03:26.224Z,24.00
2023-04-29T04:06:54.685Z,20.90
2023-04-29T04:10:26.282Z,23.20
2023-04-29T04:13:53.170Z,26.60
2023-04-29T04:17:19.991Z,22.90
2023-04-29T04:20:46.428Z,20.50
2023-04-29T04:24:13.789Z,21.90
2023-04-29T04:27:41.461Z,24.30
2023-04-29T04:31:14.947Z,23.20
2023-04-29T04:34:43.961Z,27.10
2023-04-29T04:38:12.727Z,25.80
2023-04-29T04:41:40.858Z,21.80
2023-04-29T04:45:09.899Z,23.00
2023-04-29T04:48:47.870Z,29.40
2023-04-29T04:52:16.959Z,24.90
2023-04-29T04:55:44.885Z,23.00
2023-04-29T04:59:12.043Z,27.00
2023-04-29T05:02:39.161Z,26.50
2023-04-29T05:06:06.925Z,25.10
2023-04-29T05:09:34.881Z,25.50
2023-04-29T05:13:04.526Z,25.70
2023-04-29T05:16:31.378Z,23.30
2023-04-29T05:19:59.083Z,25.40
2023-04-29T05:23:26.189Z,20.80
2023-04-29T05:26:54.416Z,28.30
2023-04-29T05:30:22.308Z,29.10
2023-04-29T05:33:49.345Z,24.10
2023-04-29T05:37:16.104Z,21.90
2023-04-29T05:41:01.200Z,22.20
2023-04-29T05:44:48.971Z,28.60
2023-04-29T05:48:15.960Z,26.90
2023-04-29T05:51:46.180Z,26.80
2023-04-29T05:55:13.531Z,28.20
2023-04-29T05:58:40.682Z,28.80
2023-04-29T06:02:07.658Z,25.70
2023-04-29T06:05:36.160Z,24.60
2023-04-29T06:09:33.939Z,22.30
2023-04-29T06:13:04.506Z,24.20
2023-04-29T06:16:31.512Z,22.50
2023-04-29T06:19:58.515Z,23.60
2023-04-29T06:23:25.364Z,24.40
2023-04-29T06:26:52.688Z,27.00
2023-04-29T06:30:20.261Z,24.90
2023-04-29T06:33:48.130Z,24.00
2023-04-29T06:37:15.788Z,22.30
2023-04-29T06:41:01.878Z,24.90
2023-04-29T06:44:48.371Z,22.10
2023-04-29T06:48:33.976Z,24.90
2023-04-29T06:52:04.408Z,24.70
2023-04-29T06:55:31.848Z,23.90
2023-04-29T06:58:59.369Z,23.80
2023-04-29T07:02:26.598Z,26.90
2023-04-29T07:05:53.718Z,20.20
2023-04-29T07:09:20.949Z,25.90
2023-04-29T07:12:48.205Z,24.20
2023-04-29T07:16:21.945Z,21.20
2023-04-29T07:19:48.936Z,26.20
2023-04-29T07:23:16.357Z,23.70
2023-04-29T07:26:44.430Z,21.60
2023-04-29T07:30:12.257Z,29.10
2023-04-29T07:33:40.120Z,21.80
2023-04-29T07:37:07.298Z,22.40
2023-04-29T07:40:33.944Z,22.30
2023-04-29T07:44:00.503Z,22.20
2023-04-29T07:47:27.671Z,28.90
2023-04-29T07:50:55.750Z,22.30
2023-04-29T07:54:23.937Z,30.30
2023-04-29T07:57:51.165Z,25.40
2023-04-29T08:01:17.939Z,23.60
2023-04-29T08:04:45.229Z,19.50
2023-04-29T08:08:13.548Z,19.40
2023-04-29T08:11:40.924Z,25.40
2023-04-29T08:15:09.974Z,19.60
2023-04-29T08:18:37.229Z,20.90
2023-04-29T08:22:04.630Z,18.90
2023-04-29T08:25:31.277Z,23.50
2023-04-29T08:28:58.803Z,19.60
2023-04-29T08:32:25.964Z,23.40
2023-04-29T08:35:59.006Z,21.30
2023-04-29T08:39:26.662Z,21.60
2023-04-29T08:42:54.965Z,23.20
2023-04-29T08:46:22.686Z,20.00
2023-04-29T08:49:49.224Z,23.10
2023-04-29T08:53:17.617Z,21.50
2023-04-29T08:56:48.650Z,23.10
2023-04-29T09:00:18.980Z,26.20
2023-04-29T09:03:53.096Z,23.50
2023-04-29T09:07:20.461Z,21.80
2023-04-29T09:10:47.870Z,22.50
2023-04-29T09:14:16.220Z,20.70
2023-04-29T09:17:48.276Z,22.20
2023-04-29T09:21:22.799Z,20.50
2023-04-29T09:24:50.097Z,22.40
2023-04-29T09:28:27.588Z,27.60
2023-04-29T09:31:59.120Z,26.60
2023-04-29T09:35:29.013Z,23.50
2023-04-29T09:38:58.866Z,23.10
2023-04-29T09:42:26.153Z,20.70
2023-04-29T09:45:53.227Z,20.60
2023-04-29T09:49:39.050Z,21.90
2023-04-29T09:53:06.785Z,24.90
2023-04-29T09:56:54.319Z,26.30
2023-04-29T10:00:21.404Z,20.70
2023-04-29T10:03:49.893Z,21.60
2023-04-29T10:07:20.034Z,21.30
2023-04-29T10:10:48.844Z,28.50
2023-04-29T10:14:19.392Z,20.10
2023-04-29T10:17:50.905Z,19.80
2023-04-29T10:21:19.988Z,21.60
2023-04-29T10:24:48.752Z,18.70
2023-04-29T10:28:18.052Z,21.00
2023-04-29T10:31:46.314Z,27.60
2023-04-29T10:35:15.107Z,19.40
2023-04-29T10:38:46.115Z,22.70
2023-04-29T10:42:22.757Z,23.20
2023-04-29T10:45:49.683Z,19.70
2023-04-29T10:49:16.556Z,18.90
2023-04-29T10:52:58.181Z,19.90
2023-04-29T10:56:37.133Z,25.50
2023-04-29T11:00:05.283Z,24.20
2023-04-29T11:03:49.773Z,18.00
2023-04-29T11:07:31.161Z,21.80
2023-04-29T11:11:04.279Z,19.70
2023-04-29T11:14:36.861Z,18.70
2023-04-29T11:18:05.408Z,18.10
2023-04-29T11:21:32.905Z,20.10
2023-04-29T11:25:01.825Z,23.90
2023-04-29T11:28:31.706Z,24.00
2023-04-29T11:32:03.060Z,20.40
2023-04-29T11:35:29.762Z,19.40
2023-04-29T11:38:56.945Z,21.80
2023-04-29T11:42:26.542Z,20.30
2023-04-29T11:45:54.498Z,21.00
2023-04-29T11:49:21.491Z,21.70
2023-04-29T11:52:50.314Z,19.10
2023-04-29T11:56:17.042Z,21.40
2023-04-29T11:59:45.579Z,22.20
2023-04-29T12:03:17.246Z,25.20
2023-04-29T12:06:45.813Z,22.10
2023-04-29T12:10:14.945Z,18.00
2023-04-29T12:13:43.075Z,21.40
2023-04-29T12:17:12.542Z,21.50
2023-04-29T12:20:40.524Z,21.10
2023-04-29T12:24:08.853Z,17.60
2023-04-29T12:27:41.875Z,21.90
2023-04-29T12:31:10.522Z,19.70
2023-04-29T12:34:38.195Z,20.50
2023-04-29T12:38:05.203Z,20.90
2023-04-29T12:41:42.555Z,19.70
2023-04-29T12:45:11.950Z,21.90
2023-04-29T12:48:44.027Z,19.40
2023-04-29T12:52:12.470Z,19.60
2023-04-29T12:55:40.451Z,19.90
2023-04-29T12:59:12.416Z,19.40
2023-04-29T13:02:38.892Z,22.10
2023-04-29T13:06:05.924Z,20.80
2023-04-29T13:09:32.650Z,22.00
2023-04-29T13:13:00.967Z,19.00
2023-04-29T13:16:28.338Z,20.60
2023-04-29T13:19:55.453Z,19.80
2023-04-29T13:23:22.986Z,23.00
2023-04-29T13:26:52.398Z,19.60
2023-04-29T13:30:19.859Z,19.00
2023-04-29T13:33:48.297Z,16.20
2023-04-29T13:37:15.290Z,17.60
2023-04-29T13:40:46.558Z,16.00
2023-04-29T13:48:03.118Z,17.80
2023-04-29T13:55:50.854Z,16.90
2023-04-29T13:59:37.194Z,23.30
2023-04-29T14:02:39.177Z,22.70
2023-04-29T14:06:08.993Z,21.20
2023-04-29T14:09:38.200Z,16.70
2023-04-29T14:13:05.386Z,15.50
2023-04-29T14:16:33.619Z,14.20
2023-04-29T14:20:00.810Z,12.70
2023-04-29T14:23:28.132Z,13.10
2023-04-29T14:26:55.998Z,15.70
2023-04-29T14:30:23.555Z,16.60
2023-04-29T14:33:51.546Z,16.80
2023-04-29T14:37:25.255Z,15.70
2023-04-29T14:40:59.267Z,12.50
2023-04-29T14:44:27.336Z,16.40
2023-04-29T14:47:53.960Z,14.00
2023-04-29T14:51:22.348Z,20.10
2023-04-29T14:54:48.974Z,19.50
2023-04-29T14:58:15.831Z,17.60
2023-04-29T15:01:42.844Z,20.20
2023-04-29T15:05:10.843Z,16.30
2023-04-29T15:08:38.567Z,16.30
2023-04-29T15:12:07.281Z,17.20
2023-04-29T15:15:36.387Z,17.70
2023-04-29T15:19:03.096Z,18.10
2023-04-29T15:22:30.007Z,13.60
2023-04-29T15:25:57.850Z,14.50
2023-04-29T15:29:26.381Z,18.10
2023-04-29T15:32:57.603Z,15.80
2023-04-29T15:36:31.441Z,17.90
2023-04-29T15:40:12.074Z,16.00
2023-04-29T15:43:40.472Z,15.00
2023-04-29T15:47:08.448Z,16.30
2023-04-29T15:50:35.363Z,16.90
2023-04-29T15:54:02.573Z,15.60
2023-04-29T15:57:34.982Z,17.90
2023-04-29T16:01:04.314Z,16.40
2023-04-29T16:04:33.580Z,16.60
2023-04-29T16:08:00.653Z,14.60
2023-04-29T16:11:27.313Z,14.70
2023-04-29T16:14:54.446Z,17.50
2023-04-29T16:18:21.236Z,15.80
2023-04-29T16:21:48.826Z,16.30
2023-04-29T16:25:16.060Z,14.40
2023-04-29T16:28:44.490Z,18.30
2023-04-29T16:32:11.540Z,16.90
2023-04-29T16:35:52.493Z,17.30
2023-04-29T16:39:40.468Z,27.10
2023-04-29T16:43:16.631Z,27.20
2023-04-29T16:46:46.135Z,27.20
2023-04-29T16:50:13.711Z,23.70
2023-04-29T16:53:40.072Z,27.50
2023-04-29T16:57:07.070Z,28.10
2023-04-29T17:00:34.906Z,25.50
2023-04-29T17:04:02.202Z,22.20
2023-04-29T17:07:28.927Z,22.80
2023-04-29T17:11:11.562Z,28.80
2023-04-29T17:14:54.811Z,25.60
2023-04-29T17:18:45.450Z,32.90
2023-04-29T17:22:18.401Z,25.30
2023-04-29T17:25:45.356Z,24.20
2023-04-29T17:29:13.226Z,22.60
2023-04-29T17:32:40.141Z,22.60
2023-04-29T17:36:09.734Z,22.20
2023-04-29T17:39:42.757Z,26.60
2023-04-29T17:43:09.736Z,24.40
2023-04-29T17:46:37.725Z,28.30
2023-04-29T17:50:05.335Z,28.60
2023-04-29T17:53:35.080Z,28.50
2023-04-29T17:57:03.589Z,29.50
2023-04-29T18:00:30.242Z,30.80
2023-04-29T18:03:56.927Z,25.70
2023-04-29T18:07:23.498Z,25.50
2023-04-29T18:10:50.635Z,23.70
2023-04-29T18:14:18.304Z,26.80
2023-04-29T18:17:46.467Z,27.80
2023-04-29T18:21:13.319Z,22.30
2023-04-29T18:24:40.654Z,24.00
2023-04-29T18:28:23.979Z,29.50
2023-04-29T18:31:54.972Z,27.30
2023-04-29T18:35:21.819Z,30.50
2023-04-29T18:38:48.838Z,27.60
2023-04-29T18:42:15.590Z,28.80
2023-04-29T18:45:42.550Z,27.40
2023-04-29T18:49:12.016Z,33.90
2023-04-29T18:52:39.759Z,28.60
2023-04-29T18:56:07.695Z,28.80
2023-04-29T18:59:38.097Z,26.60
2023-04-29T19:03:04.981Z,22.70
2023-04-29T19:06:32.656Z,23.80
2023-04-29T19:09:59.230Z,23.20
2023-04-29T19:13:27.098Z,27.50
2023-04-29T19:16:55.193Z,19.80
2023-04-29T19:20:22.234Z,23.90
2023-04-29T19:23:49.519Z,25.10
2023-04-29T19:27:17.484Z,25.70
2023-04-29T19:30:47.060Z,25.40
2023-04-29T19:34:14.037Z,26.60
2023-04-29T19:37:41.415Z,30.50
2023-04-29T19:41:08.208Z,27.00
2023-04-29T19:44:34.797Z,29.00
2023-04-29T19:48:02.721Z,24.00
2023-04-29T19:51:29.624Z,25.30
2023-04-29T19:54:57.570Z,26.60
2023-04-29T19:58:24.861Z,26.80
2023-04-29T20:01:52.315Z,31.90
2023-04-29T20:05:19.955Z,28.50
2023-04-29T20:08:46.890Z,23.80
2023-04-29T20:12:13.835Z,26.80
2023-04-29T20:15:41.125Z,26.80
2023-04-29T20:19:09.142Z,27.80
2023-04-29T20:22:35.775Z,26.20
2023-04-29T20:26:04.279Z,25.70
2023-04-29T20:29:31.047Z,29.20
2023-04-29T20:32:57.841Z,25.30
2023-04-29T20:36:28.914Z,24.40
2023-04-29T20:39:55.769Z,25.40
2023-04-29T20:43:23.316Z,22.70
2023-04-29T20:46:50.688Z,20.20
2023-04-29T20:50:17.329Z,19.00
2023-04-29T20:53:45.088Z,19.60
2023-04-29T20:57:12.456Z,20.80
2023-04-29T21:00:39.142Z,19.60
2023-04-29T21:04:06.141Z,17.80
2023-04-29T21:07:33.153Z,19.30
2023-04-29T21:11:01.770Z,17.60
2023-04-29T21:14:28.554Z,17.10
2023-04-29T21:17:55.616Z,18.50
2023-04-29T21:21:23.688Z,20.10
2023-04-29T21:24:50.234Z,17.70
2023-04-29T21:28:17.118Z,19.60
2023-04-29T21:31:43.782Z,18.00
2023-04-29T21:35:12.724Z,21.60
2023-04-29T21:38:40.090Z,18.70
2023-04-29T21:42:07.552Z,19.40
2023-04-29T21:45:35.649Z,18.40
2023-04-29T21:49:04.015Z,18.40
2023-04-29T21:52:35.351Z,15.90
2023-04-29T21:56:02.055Z,18.00
2023-04-29T21:59:34.601Z,17.30
2023-04-29T22:03:02.897Z,19.30
2023-04-29T22:06:29.973Z,15.20
2023-04-29T22:09:57.795Z,14.40
2023-04-29T22:13:24.867Z,16.90
2023-04-29T22:16:52.359Z,15.10
2023-04-29T22:20:19.491Z,17.40
2023-04-29T22:23:47.112Z,16.70
2023-04-29T22:27:14.502Z,17.10
2023-04-29T22:30:43.463Z,15.60
2023-04-29T22:34:10.508Z,19.40
2023-04-29T22:37:41.868Z,19.40
2023-04-29T22:41:12.303Z,18.50
2023-04-29T22:44:39.290Z,16.70
2023-04-29T22:48:08.275Z,17.00
2023-04-29T22:51:35.963Z,17.40
2023-04-29T22:55:02.942Z,17.40
2023-04-29T22:58:29.870Z,16.60
2023-04-29T23:01:57.471Z,13.90
2023-04-29T23:05:24.878Z,19.70
2023-04-29T23:08:51.741Z,16.80
2023-04-29T23:12:18.558Z,13.20
2023-04-29T23:15:45.836Z,14.90
2023-04-29T23:19:13.093Z,14.10
2023-04-29T23:22:39.835Z,19.60
2023-04-29T23:26:06.985Z,14.60
2023-04-29T23:29:36.627Z,21.50
2023-04-29T23:33:03.376Z,17.60
2023-04-29T23:36:30.238Z,16.10
2023-04-29T23:39:58.464Z,14.30
2023-04-29T23:43:25.581Z,15.70
2023-04-29T23:46:51.824Z,19.80
2023-04-29T23:50:18.930Z,20.40
2023-04-29T23:53:45.215Z,16.90
2023-04-29T23:57:12.329Z,19.90
